sensor_id;sensor_type;location;lat;lon;timestamp;pressure;altitude;pressure_sealevel;temperature;humidity
75991;BME280;64673;52.276;10.560;2023-04-15T00:01:49;100015.28;;;7.01;83.06
75991;BME280;64673;52.276;10.560;2023-04-15T00:04:14;100015.28;;;7.01;83.20
75991;BME280;64673;52.276;10.560;2023-04-15T00:06:39;100012.06;;;6.99;83.29
75991;BME280;64673;52.276;10.560;2023-04-15T00:09:05;100008.84;;;6.97;84.10
75991;BME280;64673;52.276;10.560;2023-04-15T00:11:30;100010.97;;;6.95;84.30
75991;BME280;64673;52.276;10.560;2023-04-15T00:13:55;100004.81;;;6.99;84.14
75991;BME280;64673;52.276;10.560;2023-04-15T00:16:21;99988.94;;;6.88;84.17
75991;BME280;64673;52.276;10.560;2023-04-15T00:18:46;99988.91;;;6.83;84.45
75991;BME280;64673;52.276;10.560;2023-04-15T00:21:11;99993.72;;;6.81;85.43
75991;BME280;64673;52.276;10.560;2023-04-15T00:23:37;99986.22;;;6.83;85.28
75991;BME280;64673;52.276;10.560;2023-04-15T00:26:02;99984.41;;;6.88;85.35
75991;BME280;64673;52.276;10.560;2023-04-15T00:28:28;99989.22;;;6.91;84.92
75991;BME280;64673;52.276;10.560;2023-04-15T00:30:53;99986.47;;;6.81;85.14
75991;BME280;64673;52.276;10.560;2023-04-15T00:33:19;99982.75;;;6.82;85.76
75991;BME280;64673;52.276;10.560;2023-04-15T00:35:44;99981.94;;;6.82;86.03
75991;BME280;64673;52.276;10.560;2023-04-15T00:38:10;99980.28;;;6.76;86.41
75991;BME280;64673;52.276;10.560;2023-04-15T00:40:36;99983.59;;;6.88;85.96
75991;BME280;64673;52.276;10.560;2023-04-15T00:43:02;99988.09;;;6.82;86.49
75991;BME280;64673;52.276;10.560;2023-04-15T00:45:28;99989.47;;;6.90;85.83
75991;BME280;64673;52.276;10.560;2023-04-15T00:47:54;99984.09;;;6.85;86.99
75991;BME280;64673;52.276;10.560;2023-04-15T00:50:20;99974.94;;;6.76;87.62
75991;BME280;64673;52.276;10.560;2023-04-15T00:52:45;99978.75;;;6.85;87.67
75991;BME280;64673;52.276;10.560;2023-04-15T00:55:11;99976.88;;;6.90;86.84
75991;BME280;64673;52.276;10.560;2023-04-15T00:57:38;99979.25;;;6.82;87.74
75991;BME280;64673;52.276;10.560;2023-04-15T01:00:04;99976.06;;;6.90;87.34
75991;BME280;64673;52.276;10.560;2023-04-15T01:02:33;99975.00;;;6.86;87.71
75991;BME280;64673;52.276;10.560;2023-04-15T01:04:58;99979.53;;;6.85;88.31
75991;BME280;64673;52.276;10.560;2023-04-15T01:07:24;99984.03;;;6.75;89.08
75991;BME280;64673;52.276;10.560;2023-04-15T01:09:50;99975.81;;;6.86;88.38
75991;BME280;64673;52.276;10.560;2023-04-15T01:12:16;99982.47;;;6.84;89.26
75991;BME280;64673;52.276;10.560;2023-04-15T01:14:42;99968.06;;;6.95;88.28
75991;BME280;64673;52.276;10.560;2023-04-15T01:17:07;99962.00;;;6.68;89.58
75991;BME280;64673;52.276;10.560;2023-04-15T01:19:33;99961.53;;;6.76;89.63
75991;BME280;64673;52.276;10.560;2023-04-15T01:22:01;99967.88;;;6.65;90.50
75991;BME280;64673;52.276;10.560;2023-04-15T01:24:29;99957.75;;;6.72;89.86
75991;BME280;64673;52.276;10.560;2023-04-15T01:26:55;99966.28;;;6.64;90.97
75991;BME280;64673;52.276;10.560;2023-04-15T01:29:20;99959.00;;;6.59;91.06
75991;BME280;64673;52.276;10.560;2023-04-15T01:31:50;99959.00;;;6.59;91.40
75991;BME280;64673;52.276;10.560;2023-04-15T01:34:16;99959.31;;;6.63;91.14
75991;BME280;64673;52.276;10.560;2023-04-15T01:36:41;99956.13;;;6.66;91.07
75991;BME280;64673;52.276;10.560;2023-04-15T01:39:07;99956.56;;;6.57;90.78
75991;BME280;64673;52.276;10.560;2023-04-15T01:41:32;99957.13;;;6.59;90.57
75991;BME280;64673;52.276;10.560;2023-04-15T01:43:57;99953.28;;;6.45;91.68
75991;BME280;64673;52.276;10.560;2023-04-15T01:46:23;99945.78;;;6.47;92.26
75991;BME280;64673;52.276;10.560;2023-04-15T01:48:48;99947.34;;;6.38;92.63
75991;BME280;64673;52.276;10.560;2023-04-15T01:51:14;99944.91;;;6.37;92.58
75991;BME280;64673;52.276;10.560;2023-04-15T01:53:39;99947.88;;;6.40;92.67
75991;BME280;64673;52.276;10.560;2023-04-15T01:56:04;99939.34;;;6.43;92.70
75991;BME280;64673;52.276;10.560;2023-04-15T01:58:31;99930.25;;;6.44;92.88
75991;BME280;64673;52.276;10.560;2023-04-15T02:00:56;99924.09;;;6.44;92.39
75991;BME280;64673;52.276;10.560;2023-04-15T02:03:23;99918.41;;;6.35;92.75
75991;BME280;64673;52.276;10.560;2023-04-15T02:05:49;99921.91;;;6.41;92.68
75991;BME280;64673;52.276;10.560;2023-04-15T02:08:15;99925.84;;;6.28;93.06
75991;BME280;64673;52.276;10.560;2023-04-15T02:10:40;99926.94;;;6.32;93.10
75991;BME280;64673;52.276;10.560;2023-04-15T02:13:06;99929.06;;;6.30;93.57
75991;BME280;64673;52.276;10.560;2023-04-15T02:15:31;99924.28;;;6.37;93.48
75991;BME280;64673;52.276;10.560;2023-04-15T02:17:57;99925.41;;;6.41;93.00
75991;BME280;64673;52.276;10.560;2023-04-15T02:20:24;99928.63;;;6.43;93.23
75991;BME280;64673;52.276;10.560;2023-04-15T02:22:50;99928.03;;;6.36;93.75
75991;BME280;64673;52.276;10.560;2023-04-15T02:25:16;99932.31;;;6.32;93.55
75991;BME280;64673;52.276;10.560;2023-04-15T02:27:42;99924.91;;;6.44;92.84
75991;BME280;64673;52.276;10.560;2023-04-15T02:30:08;99928.41;;;6.50;93.23
75991;BME280;64673;52.276;10.560;2023-04-15T02:32:34;99932.94;;;6.49;93.25
75991;BME280;64673;52.276;10.560;2023-04-15T02:35:06;99934.50;;;6.40;92.83
75991;BME280;64673;52.276;10.560;2023-04-15T02:37:35;99939.84;;;6.40;93.86
75991;BME280;64673;52.276;10.560;2023-04-15T02:40:06;99947.38;;;6.43;93.52
75991;BME280;64673;52.276;10.560;2023-04-15T02:42:32;99935.31;;;6.41;93.34
75991;BME280;64673;52.276;10.560;2023-04-15T02:44:57;99940.44;;;6.47;93.12
75991;BME280;64673;52.276;10.560;2023-04-15T02:47:22;99939.84;;;6.40;93.58
75991;BME280;64673;52.276;10.560;2023-04-15T02:49:48;99935.06;;;6.47;94.10
75991;BME280;64673;52.276;10.560;2023-04-15T02:52:13;99939.34;;;6.43;93.83
75991;BME280;64673;52.276;10.560;2023-04-15T02:54:38;99932.56;;;6.36;94.14
75991;BME280;64673;52.276;10.560;2023-04-15T02:57:04;99946.25;;;6.34;94.61
75991;BME280;64673;52.276;10.560;2023-04-15T02:59:30;99947.75;;;6.25;95.00
75991;BME280;64673;52.276;10.560;2023-04-15T03:01:56;99947.25;;;6.28;94.96
75991;BME280;64673;52.276;10.560;2023-04-15T03:04:25;99945.19;;;6.35;94.52
75991;BME280;64673;52.276;10.560;2023-04-15T03:06:50;99945.78;;;6.47;93.97
75991;BME280;64673;52.276;10.560;2023-04-15T03:09:16;99946.75;;;6.31;95.21
75991;BME280;64673;52.276;10.560;2023-04-15T03:11:41;99942.22;;;6.37;95.43
75991;BME280;64673;52.276;10.560;2023-04-15T03:14:06;99945.78;;;6.47;94.21
75991;BME280;64673;52.276;10.560;2023-04-15T03:16:31;99940.66;;;6.41;95.56
75991;BME280;64673;52.276;10.560;2023-04-15T03:18:57;99944.91;;;6.37;95.43
75991;BME280;64673;52.276;10.560;2023-04-15T03:21:22;99937.41;;;6.34;96.07
75991;BME280;64673;52.276;10.560;2023-04-15T03:23:48;99929.56;;;6.27;96.24
75991;BME280;64673;52.276;10.560;2023-04-15T03:26:29;99928.75;;;6.27;96.51
75991;BME280;64673;52.276;10.560;2023-04-15T03:28:55;99940.53;;;6.25;96.51
75991;BME280;64673;52.276;10.560;2023-04-15T03:31:21;99931.16;;;6.23;97.45
75991;BME280;64673;52.276;10.560;2023-04-15T03:33:46;99931.69;;;6.25;97.38
75991;BME280;64673;52.276;10.560;2023-04-15T03:36:12;99926.88;;;6.22;97.25
75991;BME280;64673;52.276;10.560;2023-04-15T03:38:38;99923.88;;;6.18;97.85
75991;BME280;64673;52.276;10.560;2023-04-15T03:41:03;99924.31;;;6.05;98.43
75991;BME280;64673;52.276;10.560;2023-04-15T03:43:29;99917.69;;;6.13;98.07
75991;BME280;64673;52.276;10.560;2023-04-15T03:45:55;99916.97;;;6.22;97.98
75991;BME280;64673;52.276;10.560;2023-04-15T03:48:20;99925.50;;;6.19;97.85
75991;BME280;64673;52.276;10.560;2023-04-15T03:50:46;99928.25;;;6.30;97.90
75991;BME280;64673;52.276;10.560;2023-04-15T03:53:12;99920.41;;;6.18;97.56
75991;BME280;64673;52.276;10.560;2023-04-15T03:55:38;99924.22;;;6.27;98.22
75991;BME280;64673;52.276;10.560;2023-04-15T03:58:03;99920.97;;;6.20;98.09
75991;BME280;64673;52.276;10.560;2023-04-15T04:00:28;99919.91;;;6.26;97.59
75991;BME280;64673;52.276;10.560;2023-04-15T04:02:54;99927.19;;;6.31;98.14
75991;BME280;64673;52.276;10.560;2023-04-15T04:05:19;99929.56;;;6.27;97.99
75991;BME280;64673;52.276;10.560;2023-04-15T04:07:45;99930.03;;;6.14;98.73
75991;BME280;64673;52.276;10.560;2023-04-15T04:10:10;99915.56;;;6.15;98.68
75991;BME280;64673;52.276;10.560;2023-04-15T04:12:36;99921.53;;;6.27;98.04
75991;BME280;64673;52.276;10.560;2023-04-15T04:15:01;99914.53;;;6.21;98.29
75991;BME280;64673;52.276;10.560;2023-04-15T04:17:27;99917.25;;;6.26;98.34
75991;BME280;64673;52.276;10.560;2023-04-15T04:19:52;99923.13;;;6.23;98.12
75991;BME280;64673;52.276;10.560;2023-04-15T04:22:21;99915.13;;;6.28;98.34
75991;BME280;64673;52.276;10.560;2023-04-15T04:24:46;99931.13;;;6.18;98.69
75991;BME280;64673;52.276;10.560;2023-04-15T04:27:13;99924.44;;;6.20;98.75
75991;BME280;64673;52.276;10.560;2023-04-15T04:29:38;99928.94;;;6.15;98.94
75991;BME280;64673;52.276;10.560;2023-04-15T04:32:04;99933.78;;;6.18;99.34
75991;BME280;64673;52.276;10.560;2023-04-15T04:34:29;99931.13;;;6.18;99.18
75991;BME280;64673;52.276;10.560;2023-04-15T04:36:54;99921.50;;;6.22;98.92
75991;BME280;64673;52.276;10.560;2023-04-15T04:39:20;99927.94;;;6.21;98.85
75991;BME280;64673;52.276;10.560;2023-04-15T04:41:45;99919.13;;;6.25;99.16
75991;BME280;64673;52.276;10.560;2023-04-15T04:44:10;99921.22;;;6.18;99.85
75991;BME280;64673;52.276;10.560;2023-04-15T04:46:36;99919.13;;;6.25;99.33
75991;BME280;64673;52.276;10.560;2023-04-15T04:49:01;99917.56;;;6.30;99.18
75991;BME280;64673;52.276;10.560;2023-04-15T04:51:27;99902.53;;;6.23;99.19
75991;BME280;64673;52.276;10.560;2023-04-15T04:53:52;99911.06;;;6.25;99.29
75991;BME280;64673;52.276;10.560;2023-04-15T04:56:18;99900.13;;;6.27;99.64
75991;BME280;64673;52.276;10.560;2023-04-15T04:58:43;99896.69;;;6.32;99.44
75991;BME280;64673;52.276;10.560;2023-04-15T05:01:09;99901.78;;;6.33;99.04
75991;BME280;64673;52.276;10.560;2023-04-15T05:03:34;99905.78;;;6.36;98.92
75991;BME280;64673;52.276;10.560;2023-04-15T05:06:00;99900.09;;;6.22;99.60
75991;BME280;64673;52.276;10.560;2023-04-15T05:08:30;99904.34;;;6.18;100.00
75991;BME280;64673;52.276;10.560;2023-04-15T05:10:55;99893.94;;;6.21;100.00
75991;BME280;64673;52.276;10.560;2023-04-15T05:13:20;99902.25;;;6.25;100.00
75991;BME280;64673;52.276;10.560;2023-04-15T05:15:46;99898.97;;;6.18;99.70
75991;BME280;64673;52.276;10.560;2023-04-15T05:18:11;99893.94;;;6.27;99.64
75991;BME280;64673;52.276;10.560;2023-04-15T05:20:37;99892.63;;;6.24;100.00
75991;BME280;64673;52.276;10.560;2023-04-15T05:23:03;99900.91;;;6.22;99.82
75991;BME280;64673;52.276;10.560;2023-04-15T05:25:28;99912.44;;;6.23;99.78
75991;BME280;64673;52.276;10.560;2023-04-15T05:27:53;99912.94;;;6.20;99.77
75991;BME280;64673;52.276;10.560;2023-04-15T05:30:19;99917.22;;;6.21;100.00
75991;BME280;64673;52.276;10.560;2023-04-15T05:32:45;99911.38;;;6.29;99.46
75991;BME280;64673;52.276;10.560;2023-04-15T05:35:10;99916.44;;;6.25;99.61
75991;BME280;64673;52.276;10.560;2023-04-15T05:37:36;99911.69;;;6.33;99.42
75991;BME280;64673;52.276;10.560;2023-04-15T05:40:01;99913.00;;;6.30;99.54
75991;BME280;64673;52.276;10.560;2023-04-15T05:42:28;99917.56;;;6.30;99.62
75991;BME280;64673;52.276;10.560;2023-04-15T05:44:53;99924.22;;;6.27;99.65
75991;BME280;64673;52.276;10.560;2023-04-15T05:47:19;99928.50;;;6.28;99.25
75991;BME280;64673;52.276;10.560;2023-04-15T05:49:44;99933.84;;;6.23;100.00
75991;BME280;64673;52.276;10.560;2023-04-15T05:52:09;99929.00;;;6.20;100.00
75991;BME280;64673;52.276;10.560;2023-04-15T05:54:35;99932.81;;;6.29;99.71
75991;BME280;64673;52.276;10.560;2023-04-15T05:57:00;99922.09;;;6.29;99.63
75991;BME280;64673;52.276;10.560;2023-04-15T05:59:26;99927.28;;;6.41;99.28
75991;BME280;64673;52.276;10.560;2023-04-15T06:01:52;99931.25;;;6.38;99.65
75991;BME280;64673;52.276;10.560;2023-04-15T06:04:18;99936.63;;;6.38;99.56
75991;BME280;64673;52.276;10.560;2023-04-15T06:06:43;99934.56;;;6.50;99.66
75991;BME280;64673;52.276;10.560;2023-04-15T06:09:09;99927.56;;;6.44;99.43
75991;BME280;64673;52.276;10.560;2023-04-15T06:11:34;99925.69;;;6.45;100.00
75991;BME280;64673;52.276;10.560;2023-04-15T06:13:59;99917.38;;;6.46;100.00
75991;BME280;64673;52.276;10.560;2023-04-15T06:16:25;99925.47;;;6.51;99.21
75991;BME280;64673;52.276;10.560;2023-04-15T06:18:51;99938.31;;;6.49;99.77
75991;BME280;64673;52.276;10.560;2023-04-15T06:21:16;99937.81;;;6.52;99.46
75991;BME280;64673;52.276;10.560;2023-04-15T06:23:42;99934.31;;;6.52;99.14
75991;BME280;64673;52.276;10.560;2023-04-15T06:26:07;99936.25;;;6.61;98.67
75991;BME280;64673;52.276;10.560;2023-04-15T06:28:32;99940.00;;;6.60;99.02
75991;BME280;64673;52.276;10.560;2023-04-15T06:30:58;99941.03;;;6.54;99.27
75991;BME280;64673;52.276;10.560;2023-04-15T06:33:24;99950.16;;;6.58;99.21
75991;BME280;64673;52.276;10.560;2023-04-15T06:35:49;99948.53;;;6.57;99.28
75991;BME280;64673;52.276;10.560;2023-04-15T06:38:15;99948.38;;;6.74;98.83
75991;BME280;64673;52.276;10.560;2023-04-15T06:40:40;99949.72;;;6.72;98.07
75991;BME280;64673;52.276;10.560;2023-04-15T06:43:06;99955.88;;;6.72;98.67
75991;BME280;64673;52.276;10.560;2023-04-15T06:45:32;99957.75;;;6.72;98.50
75991;BME280;64673;52.276;10.560;2023-04-15T06:47:57;99954.31;;;6.81;98.09
75991;BME280;64673;52.276;10.560;2023-04-15T06:50:23;99955.38;;;6.80;97.76
75991;BME280;64673;52.276;10.560;2023-04-15T06:52:48;99956.44;;;6.79;98.47
75991;BME280;64673;52.276;10.560;2023-04-15T06:55:14;99964.28;;;6.86;98.23
75991;BME280;64673;52.276;10.560;2023-04-15T06:57:39;99958.91;;;6.86;97.82
75991;BME280;64673;52.276;10.560;2023-04-15T07:00:05;99958.31;;;6.79;98.11
75991;BME280;64673;52.276;10.560;2023-04-15T07:02:32;99957.25;;;6.75;98.47
75991;BME280;64673;52.276;10.560;2023-04-15T07:04:59;99958.88;;;6.81;98.63
75991;BME280;64673;52.276;10.560;2023-04-15T07:07:26;99955.69;;;6.84;99.05
75991;BME280;64673;52.276;10.560;2023-04-15T07:09:51;99953.56;;;6.91;98.66
75991;BME280;64673;52.276;10.560;2023-04-15T07:12:18;99961.34;;;6.87;98.25
75991;BME280;64673;52.276;10.560;2023-04-15T07:14:43;99961.66;;;7.01;97.65
75991;BME280;64673;52.276;10.560;2023-04-15T07:17:08;99952.78;;;6.95;98.06
75991;BME280;64673;52.276;10.560;2023-04-15T07:19:34;99958.97;;;6.96;98.36
75991;BME280;64673;52.276;10.560;2023-04-15T07:22:00;99957.28;;;6.85;99.21
75991;BME280;64673;52.276;10.560;2023-04-15T07:24:25;99962.97;;;6.93;99.11
75991;BME280;64673;52.276;10.560;2023-04-15T07:26:54;99967.03;;;7.01;98.45
75991;BME280;64673;52.276;10.560;2023-04-15T07:29:24;99962.47;;;7.02;98.20
75991;BME280;64673;52.276;10.560;2023-04-15T07:31:49;99971.88;;;6.99;98.61
75991;BME280;64673;52.276;10.560;2023-04-15T07:34:15;99966.19;;;6.95;98.71
75991;BME280;64673;52.276;10.560;2023-04-15T07:36:41;99972.63;;;6.99;98.47
75991;BME280;64673;52.276;10.560;2023-04-15T07:39:07;99966.50;;;7.04;98.37
75991;BME280;64673;52.276;10.560;2023-04-15T07:41:32;99974.84;;;7.13;97.78
75991;BME280;64673;52.276;10.560;2023-04-15T07:43:57;99977.53;;;7.08;98.51
75991;BME280;64673;52.276;10.560;2023-04-15T07:46:23;99966.41;;;6.89;99.03
75991;BME280;64673;52.276;10.560;2023-04-15T07:48:51;99974.03;;;7.07;99.00
75991;BME280;64673;52.276;10.560;2023-04-15T07:51:16;99967.63;;;7.08;99.37
75991;BME280;64673;52.276;10.560;2023-04-15T07:53:42;99972.00;;;7.29;97.48
75991;BME280;64673;52.276;10.560;2023-04-15T07:56:08;99976.50;;;7.19;98.31
75991;BME280;64673;52.276;10.560;2023-04-15T07:58:33;99983.00;;;7.33;97.21
75991;BME280;64673;52.276;10.560;2023-04-15T08:00:59;99979.47;;;7.22;97.97
75991;BME280;64673;52.276;10.560;2023-04-15T08:03:24;99978.44;;;7.28;98.18
75991;BME280;64673;52.276;10.560;2023-04-15T08:05:50;99981.91;;;7.29;98.41
75991;BME280;64673;52.276;10.560;2023-04-15T08:08:15;99981.41;;;7.37;97.95
75991;BME280;64673;52.276;10.560;2023-04-15T08:10:40;99992.44;;;7.46;97.48
75991;BME280;64673;52.276;10.560;2023-04-15T08:13:06;99990.00;;;7.44;97.37
75991;BME280;64673;52.276;10.560;2023-04-15T08:15:32;99996.19;;;7.40;98.04
75991;BME280;64673;52.276;10.560;2023-04-15T08:17:57;99996.19;;;7.40;98.12
75991;BME280;64673;52.276;10.560;2023-04-15T08:20:24;99993.72;;;7.33;98.35
75991;BME280;64673;52.276;10.560;2023-04-15T08:22:50;99994.59;;;7.49;97.37
75991;BME280;64673;52.276;10.560;2023-04-15T08:25:16;99995.13;;;7.46;97.62
75991;BME280;64673;52.276;10.560;2023-04-15T08:27:42;99999.16;;;7.53;97.99
75991;BME280;64673;52.276;10.560;2023-04-15T08:30:08;100001.25;;;7.36;98.66
75991;BME280;64673;52.276;10.560;2023-04-15T08:32:33;100000.53;;;7.56;97.84
75991;BME280;64673;52.276;10.560;2023-04-15T08:34:58;99994.09;;;7.52;97.41
75991;BME280;64673;52.276;10.560;2023-04-15T08:37:24;99999.50;;;7.67;97.15
75991;BME280;64673;52.276;10.560;2023-04-15T08:39:50;100005.97;;;7.71;97.00
75991;BME280;64673;52.276;10.560;2023-04-15T08:42:16;100011.34;;;7.81;96.68
75991;BME280;64673;52.276;10.560;2023-04-15T08:44:45;100010.47;;;7.65;97.28
75991;BME280;64673;52.276;10.560;2023-04-15T08:47:12;100019.41;;;7.81;96.23
75991;BME280;64673;52.276;10.560;2023-04-15T08:49:40;100016.66;;;7.66;97.36
75991;BME280;64673;52.276;10.560;2023-04-15T08:52:07;100018.88;;;7.89;96.47
75991;BME280;64673;52.276;10.560;2023-04-15T08:54:34;100029.06;;;7.87;96.78
75991;BME280;64673;52.276;10.560;2023-04-15T08:57:00;100022.91;;;7.97;95.95
75991;BME280;64673;52.276;10.560;2023-04-15T08:59:27;100021.88;;;8.03;95.38
75991;BME280;64673;52.276;10.560;2023-04-15T09:01:54;100022.66;;;7.93;96.02
75991;BME280;64673;52.276;10.560;2023-04-15T09:04:21;100022.91;;;7.97;96.31
75991;BME280;64673;52.276;10.560;2023-04-15T09:06:46;100021.06;;;8.02;96.43
75991;BME280;64673;52.276;10.560;2023-04-15T09:09:12;100030.22;;;8.12;96.09
75991;BME280;64673;52.276;10.560;2023-04-15T09:11:38;100030.47;;;8.05;96.39
75991;BME280;64673;52.276;10.560;2023-04-15T09:14:04;100028.06;;;8.14;95.49
75991;BME280;64673;52.276;10.560;2023-04-15T09:16:29;100030.22;;;8.22;94.67
75991;BME280;64673;52.276;10.560;2023-04-15T09:18:55;100033.16;;;8.05;96.27
75991;BME280;64673;52.276;10.560;2023-04-15T09:21:21;100028.88;;;8.04;96.20
75991;BME280;64673;52.276;10.560;2023-04-15T09:26:30;100035.56;;;8.06;96.84
75991;BME280;64673;52.276;10.560;2023-04-15T09:29:10;100038.56;;;8.25;94.84
75991;BME280;64673;52.276;10.560;2023-04-15T09:31:39;100033.47;;;8.24;95.58
75991;BME280;64673;52.276;10.560;2023-04-15T09:34:06;100040.94;;;8.17;95.65
75991;BME280;64673;52.276;10.560;2023-04-15T09:36:52;100038.81;;;8.19;95.56
75991;BME280;64673;52.276;10.560;2023-04-15T09:39:17;100040.97;;;8.27;95.54
75991;BME280;64673;52.276;10.560;2023-04-15T09:41:43;100045.22;;;8.07;96.32
75991;BME280;64673;52.276;10.560;2023-04-15T09:44:25;100043.38;;;8.18;96.44
75991;BME280;64673;52.276;10.560;2023-04-15T09:46:51;100048.47;;;8.04;97.28
75991;BME280;64673;52.276;10.560;2023-04-15T09:49:16;100046.63;;;8.15;97.16
75991;BME280;64673;52.276;10.560;2023-04-15T09:51:42;100041.47;;;8.08;96.71
75991;BME280;64673;52.276;10.560;2023-04-15T09:54:08;100052.78;;;8.21;96.89
75991;BME280;64673;52.276;10.560;2023-04-15T09:56:38;100050.38;;;8.19;96.80
75991;BME280;64673;52.276;10.560;2023-04-15T09:59:07;100058.19;;;8.26;95.63
75991;BME280;64673;52.276;10.560;2023-04-15T10:01:32;100053.34;;;8.23;95.12
75991;BME280;64673;52.276;10.560;2023-04-15T10:04:02;100054.94;;;8.29;94.48
75991;BME280;64673;52.276;10.560;2023-04-15T10:06:28;100057.09;;;8.27;96.20
75991;BME280;64673;52.276;10.560;2023-04-15T10:08:54;100065.75;;;8.34;95.19
75991;BME280;64673;52.276;10.560;2023-04-15T10:11:21;100054.41;;;8.27;94.86
75991;BME280;64673;52.276;10.560;2023-04-15T10:13:49;100058.22;;;8.41;95.01
75991;BME280;64673;52.276;10.560;2023-04-15T10:16:15;100071.13;;;8.44;95.14
75991;BME280;64673;52.276;10.560;2023-04-15T10:18:44;100067.63;;;8.49;94.24
75991;BME280;64673;52.276;10.560;2023-04-15T10:21:10;100060.94;;;8.46;94.50
75991;BME280;64673;52.276;10.560;2023-04-15T10:23:38;100062.25;;;8.59;95.30
75991;BME280;64673;52.276;10.560;2023-04-15T10:26:04;100059.84;;;8.67;94.03
75991;BME280;64673;52.276;10.560;2023-04-15T10:28:30;100065.75;;;8.74;94.15
75991;BME280;64673;52.276;10.560;2023-04-15T10:30:56;100069.00;;;8.76;93.94
75991;BME280;64673;52.276;10.560;2023-04-15T10:33:22;100065.75;;;8.74;92.99
75991;BME280;64673;52.276;10.560;2023-04-15T10:35:51;100077.31;;;8.65;93.91
75991;BME280;64673;52.276;10.560;2023-04-15T10:38:39;100080.28;;;8.63;94.73
75991;BME280;64673;52.276;10.560;2023-04-15T10:41:23;100079.19;;;8.59;93.74
75991;BME280;64673;52.276;10.560;2023-04-15T10:46:22;100088.34;;;8.68;94.00
75991;BME280;64673;52.276;10.560;2023-04-15T10:48:52;100084.06;;;8.67;93.72
75991;BME280;64673;52.276;10.560;2023-04-15T10:51:30;100090.50;;;8.66;93.70
75991;BME280;64673;52.276;10.560;2023-04-15T10:53:57;100096.41;;;8.73;93.37
75991;BME280;64673;52.276;10.560;2023-04-15T10:56:23;100094.25;;;8.80;93.10
75991;BME280;64673;52.276;10.560;2023-04-15T10:58:49;100090.50;;;8.81;93.56
75991;BME280;64673;52.276;10.560;2023-04-15T11:01:15;100089.97;;;8.85;93.57
75991;BME280;64673;52.276;10.560;2023-04-15T11:03:42;100094.25;;;9.01;93.31
75991;BME280;64673;52.276;10.560;2023-04-15T11:06:08;100098.31;;;8.88;93.28
75991;BME280;64673;52.276;10.560;2023-04-15T11:08:56;100106.88;;;8.90;93.22
75991;BME280;64673;52.276;10.560;2023-04-15T11:11:23;100106.38;;;8.88;93.68
75991;BME280;64673;52.276;10.560;2023-04-15T11:14:14;100114.69;;;9.07;92.79
75991;BME280;64673;52.276;10.560;2023-04-15T11:16:42;100118.72;;;8.94;92.82
75991;BME280;64673;52.276;10.560;2023-04-15T11:19:09;100121.13;;;9.01;92.64
75991;BME280;64673;52.276;10.560;2023-04-15T11:21:35;100136.75;;;8.84;93.76
75991;BME280;64673;52.276;10.560;2023-04-15T11:24:00;100132.72;;;8.86;93.21
75991;BME280;64673;52.276;10.560;2023-04-15T11:26:26;100136.47;;;8.85;94.25
75991;BME280;64673;52.276;10.560;2023-04-15T11:28:51;100138.91;;;9.02;93.24
75991;BME280;64673;52.276;10.560;2023-04-15T11:31:17;100135.13;;;8.77;93.95
75991;BME280;64673;52.276;10.560;2023-04-15T11:36:19;100144.03;;;8.98;93.29
75991;BME280;64673;52.276;10.560;2023-04-15T11:38:45;100149.94;;;8.95;93.62
75991;BME280;64673;52.276;10.560;2023-04-15T11:41:12;100144.56;;;9.05;92.65
75991;BME280;64673;52.276;10.560;2023-04-15T11:43:38;100148.56;;;8.93;93.47
75991;BME280;64673;52.276;10.560;2023-04-15T11:46:03;100147.25;;;9.05;92.72
75991;BME280;64673;52.276;10.560;2023-04-15T11:48:34;100153.41;;;9.01;93.34
75991;BME280;64673;52.276;10.560;2023-04-15T11:51:02;100144.84;;;9.09;92.39
75991;BME280;64673;52.276;10.560;2023-04-15T11:56:04;100155.03;;;9.17;92.61
75991;BME280;64673;52.276;10.560;2023-04-15T11:58:29;100152.34;;;9.12;92.72
75991;BME280;64673;52.276;10.560;2023-04-15T12:00:59;100160.16;;;8.98;93.66
75991;BME280;64673;52.276;10.560;2023-04-15T12:03:28;100159.91;;;9.10;93.53
75991;BME280;64673;52.276;10.560;2023-04-15T12:11:38;100163.13;;;9.17;92.69
75991;BME280;64673;52.276;10.560;2023-04-15T12:16:50;100160.41;;;9.27;92.23
75991;BME280;64673;52.276;10.560;2023-04-15T12:19:22;100172.53;;;9.30;92.14
75991;BME280;64673;52.276;10.560;2023-04-15T12:21:48;100173.88;;;9.17;93.12
75991;BME280;64673;52.276;10.560;2023-04-15T12:24:14;100174.13;;;9.26;92.70
75991;BME280;64673;52.276;10.560;2023-04-15T12:26:48;100177.63;;;9.41;92.07
75991;BME280;64673;52.276;10.560;2023-04-15T12:29:15;100172.22;;;9.62;91.17
75991;BME280;64673;52.276;10.560;2023-04-15T12:34:36;100172.75;;;9.64;91.17
75991;BME280;64673;52.276;10.560;2023-04-15T12:37:03;100177.63;;;9.41;91.21
75991;BME280;64673;52.276;10.560;2023-04-15T12:39:31;100182.72;;;9.48;91.36
75991;BME280;64673;52.276;10.560;2023-04-15T12:41:59;100181.66;;;9.44;91.28
75991;BME280;64673;52.276;10.560;2023-04-15T12:44:25;100187.28;;;9.68;90.83
75991;BME280;64673;52.276;10.560;2023-04-15T12:46:50;100194.81;;;9.66;89.82
75991;BME280;64673;52.276;10.560;2023-04-15T12:49:17;100188.38;;;9.57;91.09
75991;BME280;64673;52.276;10.560;2023-04-15T12:51:50;100188.34;;;9.72;90.37
75991;BME280;64673;52.276;10.560;2023-04-15T12:54:16;100186.75;;;9.61;90.90
75991;BME280;64673;52.276;10.560;2023-04-15T12:56:43;100187.25;;;9.83;90.96
75991;BME280;64673;52.276;10.560;2023-04-15T12:59:08;100194.25;;;9.84;90.81
75991;BME280;64673;52.276;10.560;2023-04-15T13:01:34;100200.13;;;9.96;89.37
75991;BME280;64673;52.276;10.560;2023-04-15T13:04:00;100195.28;;;9.98;90.24
75991;BME280;64673;52.276;10.560;2023-04-15T13:06:25;100202.28;;;10.04;88.79
75991;BME280;64673;52.276;10.560;2023-04-15T13:08:51;100199.31;;;10.06;89.45
75991;BME280;64673;52.276;10.560;2023-04-15T13:11:19;100196.03;;;10.24;88.94
75991;BME280;64673;52.276;10.560;2023-04-15T13:13:44;100197.63;;;10.30;88.64